createdAt,value
2023-05-02T00:00:08.887Z,633.00
2023-05-02T00:01:08.876Z,634.00
2023-05-02T00:02:08.891Z,634.00
2023-05-02T00:03:08.944Z,635.00
2023-05-02T00:04:08.915Z,636.00
2023-05-02T00:05:08.823Z,637.00
2023-05-02T00:06:08.835Z,637.00
2023-05-02T00:07:08.806Z,637.00
2023-05-02T00:08:08.800Z,636.00
2023-05-02T00:09:08.787Z,637.00
2023-05-02T00:10:08.767Z,637.00
2023-05-02T00:11:08.761Z,636.00
2023-05-02T00:12:08.752Z,637.00
2023-05-02T00:13:08.729Z,636.00
2023-05-02T00:14:08.730Z,635.00
2023-05-02T00:15:08.705Z,634.00
2023-05-02T00:16:08.695Z,634.00
2023-05-02T00:17:08.777Z,635.00
2023-05-02T00:18:08.727Z,636.00
2023-05-02T00:19:08.654Z,637.00
2023-05-02T00:20:08.637Z,634.00
2023-05-02T00:21:08.636Z,634.00
2023-05-02T00:22:08.620Z,636.00
2023-05-02T00:23:08.600Z,637.00
2023-05-02T00:24:08.596Z,634.00
2023-05-02T00:25:08.568Z,632.00
2023-05-02T00:26:08.568Z,626.00
2023-05-02T00:27:08.555Z,625.00
2023-05-02T00:28:08.551Z,626.00
2023-05-02T00:29:08.538Z,628.00
2023-05-02T00:30:08.519Z,627.00
2023-05-02T00:31:08.541Z,629.00
2023-05-02T00:32:08.496Z,631.00
2023-05-02T00:33:08.526Z,630.00
2023-05-02T00:34:08.477Z,633.00
2023-05-02T00:35:08.465Z,633.00
2023-05-02T00:36:08.451Z,634.00
2023-05-02T00:37:08.440Z,633.00
2023-05-02T00:38:08.425Z,634.00
2023-05-02T00:39:08.409Z,636.00
2023-05-02T00:40:08.429Z,636.00
2023-05-02T00:41:08.394Z,634.00
2023-05-02T00:42:08.380Z,635.00
2023-05-02T00:43:08.364Z,635.00
2023-05-02T00:44:08.358Z,634.00
2023-05-02T00:45:08.334Z,635.00
2023-05-02T00:46:08.355Z,635.00
2023-05-02T00:47:08.309Z,634.00
2023-05-02T00:48:08.314Z,631.00
2023-05-02T00:49:08.292Z,632.00
2023-05-02T00:50:08.270Z,632.00
2023-05-02T00:51:08.269Z,630.00
2023-05-02T00:52:08.273Z,629.00
2023-05-02T00:53:08.253Z,628.00
2023-05-02T00:54:08.233Z,631.00
2023-05-02T00:55:08.223Z,632.00
2023-05-02T00:56:08.214Z,633.00
2023-05-02T00:57:08.197Z,633.00
2023-05-02T00:58:08.186Z,635.00
2023-05-02T00:59:08.168Z,636.00
2023-05-02T01:00:08.164Z,638.00
2023-05-02T01:01:08.219Z,641.00
2023-05-02T01:02:08.210Z,638.00
2023-05-02T01:03:08.175Z,636.00
2023-05-02T01:04:08.184Z,636.00
2023-05-02T01:05:08.090Z,637.00
2023-05-02T01:06:08.105Z,637.00
2023-05-02T01:07:08.062Z,639.00
2023-05-02T01:08:08.051Z,639.00
2023-05-02T01:09:08.039Z,641.00
2023-05-02T01:10:08.029Z,639.00
2023-05-02T01:11:08.026Z,638.00
2023-05-02T01:12:08.006Z,637.00
2023-05-02T01:13:07.992Z,638.00
2023-05-02T01:14:07.985Z,637.00
2023-05-02T01:15:07.982Z,637.00
2023-05-02T01:16:08.040Z,636.00
2023-05-02T01:17:07.956Z,636.00
2023-05-02T01:18:07.993Z,637.00
2023-05-02T01:19:07.925Z,634.00
2023-05-02T01:20:07.915Z,634.00
2023-05-02T01:21:07.943Z,633.00
2023-05-02T01:22:07.887Z,632.00
2023-05-02T01:23:07.875Z,631.00
2023-05-02T01:24:07.855Z,627.00
2023-05-02T01:25:07.840Z,627.00
2023-05-02T01:26:07.828Z,628.00
2023-05-02T01:27:07.804Z,628.00
2023-05-02T01:28:07.787Z,628.00
2023-05-02T01:29:07.783Z,630.00
2023-05-02T01:30:07.787Z,631.00
2023-05-02T01:31:07.763Z,631.00
2023-05-02T01:32:07.814Z,633.00
2023-05-02T01:33:07.798Z,633.00
2023-05-02T01:34:07.693Z,634.00
2023-05-02T01:35:07.684Z,635.00
2023-05-02T01:36:07.677Z,635.00
2023-05-02T01:37:07.648Z,635.00
2023-05-02T01:38:07.648Z,633.00
2023-05-02T01:39:07.624Z,635.00
2023-05-02T01:40:07.615Z,634.00
2023-05-02T01:41:07.600Z,634.00
2023-05-02T01:42:07.594Z,634.00
2023-05-02T01:43:07.582Z,631.00
2023-05-02T01:44:07.552Z,633.00
2023-05-02T01:45:07.552Z,636.00
2023-05-02T01:46:07.542Z,638.00
2023-05-02T01:47:07.659Z,637.00
2023-05-02T01:48:07.554Z,637.00
2023-05-02T01:49:07.530Z,641.00
2023-05-02T01:50:07.484Z,640.00
2023-05-02T01:51:07.502Z,640.00
2023-05-02T01:52:07.453Z,638.00
2023-05-02T01:53:07.449Z,637.00
2023-05-02T01:54:07.445Z,637.00
2023-05-02T01:55:07.415Z,636.00
2023-05-02T01:56:07.412Z,636.00
2023-05-02T01:57:07.392Z,639.00
2023-05-02T01:58:07.398Z,638.00
2023-05-02T01:59:07.374Z,638.00
2023-05-02T02:00:07.365Z,638.00
2023-05-02T02:01:07.394Z,636.00
2023-05-02T02:02:07.329Z,635.00
2023-05-02T02:03:07.363Z,636.00
2023-05-02T02:04:07.335Z,635.00
2023-05-02T02:05:07.278Z,633.00
2023-05-02T02:06:07.308Z,632.00
2023-05-02T02:07:07.274Z,634.00
2023-05-02T02:08:07.265Z,632.00
2023-05-02T02:09:07.243Z,633.00
2023-05-02T02:10:07.245Z,630.00
2023-05-02T02:11:07.221Z,629.00
2023-05-02T02:12:07.211Z,632.00
2023-05-02T02:13:07.200Z,632.00
2023-05-02T02:14:07.195Z,633.00
2023-05-02T02:15:07.175Z,636.00
2023-05-02T02:16:07.213Z,636.00
2023-05-02T02:17:07.205Z,636.00
2023-05-02T02:18:07.215Z,633.00
2023-05-02T02:19:07.134Z,635.00
2023-05-02T02:20:07.124Z,635.00
2023-05-02T02:21:07.118Z,636.00
2023-05-02T02:22:07.101Z,636.00
2023-05-02T02:23:07.101Z,636.00
2023-05-02T02:24:07.080Z,636.00
2023-05-02T02:25:07.062Z,636.00
2023-05-02T02:26:07.061Z,641.00
2023-05-02T02:27:07.045Z,642.00
2023-05-02T02:28:07.029Z,641.00
2023-05-02T02:29:07.020Z,643.00
2023-05-02T02:30:07.008Z,641.00
2023-05-02T02:31:07.056Z,638.00
2023-05-02T02:32:06.978Z,637.00
2023-05-02T02:33:07.040Z,635.00
2023-05-02T02:34:06.962Z,635.00
2023-05-02T02:35:06.960Z,637.00
2023-05-02T02:36:06.940Z,635.00
2023-05-02T02:37:06.925Z,637.00
2023-05-02T02:38:06.912Z,637.00
2023-05-02T02:39:06.922Z,636.00
2023-05-02T02:40:06.902Z,635.00
2023-05-02T02:41:06.901Z,634.00
2023-05-02T02:42:06.879Z,634.00
2023-05-02T02:43:06.861Z,631.00
2023-05-02T02:44:06.854Z,630.00
2023-05-02T02:45:06.837Z,630.00
2023-05-02T02:46:06.852Z,628.00
2023-05-02T02:47:06.811Z,627.00
2023-05-02T02:48:06.892Z,628.00
2023-05-02T02:49:06.792Z,627.00
2023-05-02T02:50:06.836Z,629.00
2023-05-02T02:51:06.754Z,628.00
2023-05-02T02:52:06.743Z,626.00
2023-05-02T02:53:06.728Z,628.00
2023-05-02T02:54:18.982Z,629.00
2023-05-02T02:55:07.697Z,630.00
2023-05-02T02:56:06.652Z,632.00
2023-05-02T02:57:06.618Z,634.00
2023-05-02T02:58:06.586Z,634.00
2023-05-02T02:59:06.570Z,633.00
2023-05-02T03:00:06.533Z,632.00
2023-05-02T03:01:06.634Z,632.00
2023-05-02T03:02:06.529Z,629.00
2023-05-02T03:03:06.488Z,631.00
2023-05-02T03:04:06.489Z,628.00
2023-05-02T03:05:06.377Z,626.00
2023-05-02T03:06:06.364Z,628.00
2023-05-02T03:07:06.310Z,627.00
2023-05-02T03:08:06.281Z,625.00
2023-05-02T03:09:06.258Z,625.00
2023-05-02T03:10:06.232Z,626.00
2023-05-02T03:11:06.215Z,625.00
2023-05-02T03:12:06.182Z,624.00
2023-05-02T03:13:06.162Z,623.00
2023-05-02T03:14:06.130Z,625.00
2023-05-02T03:15:06.090Z,625.00
2023-05-02T03:16:06.080Z,626.00
2023-05-02T03:17:06.028Z,627.00
2023-05-02T03:18:06.035Z,627.00
2023-05-02T03:19:05.979Z,629.00
2023-05-02T03:20:05.934Z,630.00
2023-05-02T03:21:05.898Z,628.00
2023-05-02T03:22:05.894Z,626.00
2023-05-02T03:23:05.839Z,625.00
2023-05-02T03:24:05.814Z,624.00
2023-05-02T03:25:05.794Z,624.00
2023-05-02T03:26:05.774Z,628.00
2023-05-02T03:27:05.739Z,629.00
2023-05-02T03:28:05.710Z,631.00
2023-05-02T03:29:05.699Z,630.00
2023-05-02T03:30:05.680Z,630.00
2023-05-02T03:31:05.659Z,628.00
2023-05-02T03:32:05.688Z,631.00
2023-05-02T03:33:05.624Z,633.00
2023-05-02T03:34:05.563Z,630.00
2023-05-02T03:35:05.548Z,630.00
2023-05-02T03:36:05.529Z,633.00
2023-05-02T03:37:05.519Z,633.00
2023-05-02T03:38:05.496Z,631.00
2023-05-02T03:39:05.487Z,629.00
2023-05-02T03:40:05.470Z,628.00
2023-05-02T03:41:05.457Z,630.00
2023-05-02T03:42:05.449Z,630.00
2023-05-02T03:43:05.449Z,631.00
2023-05-02T03:44:05.441Z,630.00
2023-05-02T03:45:05.400Z,629.00
2023-05-02T03:46:05.390Z,630.00
2023-05-02T03:47:05.584Z,632.00
2023-05-02T03:48:05.397Z,632.00
2023-05-02T03:49:05.355Z,632.00
2023-05-02T03:50:05.333Z,630.00
2023-05-02T03:51:05.329Z,629.00
2023-05-02T03:52:05.314Z,628.00
2023-05-02T03:53:05.305Z,627.00
2023-05-02T03:54:05.300Z,628.00
2023-05-02T03:55:05.276Z,625.00
2023-05-02T03:56:05.274Z,624.00
2023-05-02T03:57:05.245Z,623.00
2023-05-02T03:58:05.236Z,624.00
2023-05-02T03:59:05.218Z,626.00
2023-05-02T04:00:05.204Z,627.00
2023-05-02T04:01:05.193Z,627.00
2023-05-02T04:02:05.238Z,630.00
2023-05-02T04:03:05.270Z,631.00
2023-05-02T04:04:05.194Z,628.00
2023-05-02T04:05:05.138Z,630.00
2023-05-02T04:06:05.167Z,628.00
2023-05-02T04:07:05.102Z,629.00
2023-05-02T04:08:05.100Z,629.00
2023-05-02T04:09:05.105Z,630.00
2023-05-02T04:10:05.063Z,626.00
2023-05-02T04:11:05.061Z,626.00
2023-05-02T04:12:05.042Z,625.00
2023-05-02T04:13:05.035Z,625.00
2023-05-02T04:14:05.023Z,625.00
2023-05-02T04:15:05.007Z,628.00
2023-05-02T04:16:05.001Z,629.00
2023-05-02T04:17:04.999Z,628.00
2023-05-02T04:18:04.999Z,628.00
2023-05-02T04:19:04.951Z,629.00
2023-05-02T04:20:05.503Z,629.00
2023-05-02T04:21:04.929Z,628.00
2023-05-02T04:22:04.912Z,627.00
2023-05-02T04:23:04.892Z,626.00
2023-05-02T04:24:04.880Z,628.00
2023-05-02T04:25:04.861Z,626.00
2023-05-02T04:26:04.839Z,626.00
2023-05-02T04:27:04.831Z,624.00
2023-05-02T04:28:04.810Z,624.00
2023-05-02T04:29:04.804Z,624.00
2023-05-02T04:30:04.799Z,626.00
2023-05-02T04:31:05.202Z,625.00
2023-05-02T04:32:04.783Z,625.00
2023-05-02T04:33:04.823Z,625.00
2023-05-02T04:34:04.745Z,624.00
2023-05-02T04:35:04.733Z,623.00
2023-05-02T04:36:04.717Z,622.00
2023-05-02T04:37:04.700Z,622.00
2023-05-02T04:38:04.693Z,621.00
2023-05-02T04:39:04.690Z,622.00
2023-05-02T04:40:04.692Z,623.00
2023-05-02T04:41:09.281Z,624.00
2023-05-02T04:42:05.646Z,624.00
2023-05-02T04:43:04.611Z,625.00
2023-05-02T04:44:04.588Z,627.00
2023-05-02T04:45:04.555Z,626.00
2023-05-02T04:46:04.603Z,627.00
2023-05-02T04:47:04.504Z,628.00
2023-05-02T04:48:04.508Z,627.00
2023-05-02T04:49:04.467Z,628.00
2023-05-02T04:50:04.411Z,626.00
2023-05-02T04:51:04.378Z,627.00
2023-05-02T04:52:04.350Z,627.00
2023-05-02T04:53:04.304Z,627.00
2023-05-02T04:54:04.276Z,629.00
2023-05-02T04:55:04.246Z,631.00
2023-05-02T04:56:04.222Z,632.00
2023-05-02T04:57:04.178Z,633.00
2023-05-02T04:58:04.151Z,634.00
2023-05-02T04:59:04.105Z,635.00
2023-05-02T05:00:04.135Z,637.00
2023-05-02T05:01:04.047Z,639.00
2023-05-02T05:02:04.083Z,640.00
2023-05-02T05:03:04.067Z,639.00
2023-05-02T05:04:04.171Z,640.00
2023-05-02T05:05:03.992Z,639.00
2023-05-02T05:06:04.028Z,642.00
2023-05-02T05:07:03.981Z,641.00
2023-05-02T05:08:04.076Z,641.00
2023-05-02T05:09:03.998Z,641.00
2023-05-02T05:10:04.170Z,639.00
2023-05-02T05:11:04.036Z,641.00
2023-05-02T05:12:04.044Z,641.00
2023-05-02T05:13:04.052Z,648.00
2023-05-02T05:14:04.173Z,649.00
2023-05-02T05:15:04.079Z,652.00
2023-05-02T05:16:04.120Z,718.00
2023-05-02T05:17:04.131Z,707.00
2023-05-02T05:18:04.172Z,702.00
2023-05-02T05:19:04.155Z,696.00
2023-05-02T05:20:04.185Z,705.00
2023-05-02T05:21:04.195Z,743.00
2023-05-02T05:22:04.181Z,742.00
2023-05-02T05:23:04.204Z,763.00
2023-05-02T05:24:04.226Z,825.00
2023-05-02T05:25:04.256Z,854.00
2023-05-02T05:26:04.288Z,920.00
2023-05-02T05:27:04.343Z,964.00
2023-05-02T05:28:04.386Z,937.00
2023-05-02T05:29:04.403Z,930.00
2023-05-02T05:30:04.453Z,941.00
2023-05-02T05:31:04.508Z,969.00
2023-05-02T05:32:04.568Z,985.00
2023-05-02T05:33:04.484Z,992.00
2023-05-02T05:34:04.460Z,926.00
2023-05-02T05:35:04.378Z,866.00
2023-05-02T05:36:04.359Z,833.00
2023-05-02T05:37:04.345Z,797.00
2023-05-02T05:38:04.382Z,790.00
2023-05-02T05:39:04.326Z,806.00
2023-05-02T05:40:04.468Z,802.00
2023-05-02T05:41:04.290Z,804.00
2023-05-02T05:42:04.348Z,807.00
2023-05-02T05:43:05.233Z,805.00
2023-05-02T05:44:04.332Z,801.00
2023-05-02T05:45:04.328Z,804.00
2023-05-02T05:46:04.342Z,807.00
2023-05-02T05:47:04.418Z,808.00
2023-05-02T05:48:04.525Z,806.00
2023-05-02T05:49:04.344Z,798.00
2023-05-02T05:50:04.387Z,799.00
2023-05-02T05:51:04.350Z,795.00
2023-05-02T05:52:04.339Z,795.00
2023-05-02T05:53:04.329Z,787.00
2023-05-02T05:54:04.332Z,795.00
2023-05-02T05:55:04.345Z,779.00
2023-05-02T05:56:04.335Z,777.00
2023-05-02T05:57:04.339Z,776.00
2023-05-02T05:58:04.347Z,772.00
2023-05-02T05:59:04.343Z,770.00
2023-05-02T06:00:04.444Z,846.00
2023-05-02T06:01:04.309Z,832.00
2023-05-02T06:02:04.397Z,841.00
2023-05-02T06:03:05.571Z,837.00
2023-05-02T06:04:04.329Z,832.00
2023-05-02T06:05:05.356Z,776.00
2023-05-02T06:06:04.264Z,760.00
2023-05-02T06:07:05.198Z,760.00
2023-05-02T06:08:04.152Z,757.00
2023-05-02T06:09:04.123Z,753.00
2023-05-02T06:10:04.077Z,751.00
2023-05-02T06:11:04.068Z,750.00
2023-05-02T06:12:04.033Z,749.00
2023-05-02T06:13:04.004Z,749.00
2023-05-02T06:14:03.961Z,750.00
2023-05-02T06:15:03.971Z,749.00
2023-05-02T06:16:03.988Z,748.00
2023-05-02T06:17:03.890Z,744.00
2023-05-02T06:18:03.901Z,742.00
2023-05-02T06:19:03.836Z,741.00
2023-05-02T06:20:03.834Z,739.00
2023-05-02T06:21:03.883Z,739.00
2023-05-02T06:22:05.774Z,757.00
2023-05-02T06:23:08.492Z,803.00
2023-05-02T06:24:03.756Z,827.00
2023-05-02T06:25:03.828Z,927.00
2023-05-02T06:26:03.682Z,937.00
2023-05-02T06:27:04.644Z,935.00
2023-05-02T06:28:03.613Z,935.00
2023-05-02T06:29:03.606Z,929.00
2023-05-02T06:30:04.032Z,896.00
2023-05-02T06:31:03.647Z,876.00
2023-05-02T06:32:03.651Z,861.00
2023-05-02T06:33:03.848Z,854.00
2023-05-02T06:34:03.509Z,824.00
2023-05-02T06:35:03.472Z,819.00
2023-05-02T06:36:03.465Z,813.00
2023-05-02T06:37:03.441Z,810.00
2023-05-02T06:38:03.474Z,815.00
2023-05-02T06:39:03.389Z,821.00
2023-05-02T06:40:04.394Z,825.00
2023-05-02T06:41:03.324Z,827.00
2023-05-02T06:42:03.300Z,825.00
2023-05-02T06:43:03.277Z,822.00
2023-05-02T06:44:03.245Z,816.00
2023-05-02T06:45:03.242Z,814.00
2023-05-02T06:46:03.220Z,813.00
2023-05-02T06:47:03.266Z,809.00
2023-05-02T06:48:03.841Z,809.00
2023-05-02T06:49:03.242Z,808.00
2023-05-02T06:50:03.420Z,808.00
2023-05-02T06:51:03.244Z,807.00
2023-05-02T06:52:03.237Z,805.00
2023-05-02T06:53:03.211Z,803.00
2023-05-02T06:54:03.218Z,804.00
2023-05-02T06:55:03.202Z,801.00
2023-05-02T06:56:03.207Z,799.00
2023-05-02T06:57:05.773Z,794.00
2023-05-02T06:58:03.394Z,795.00
2023-05-02T06:59:04.272Z,799.00
2023-05-02T07:00:04.449Z,802.00
2023-05-02T07:01:03.438Z,800.00
2023-05-02T07:02:05.366Z,801.00
2023-05-02T07:03:03.470Z,802.00
2023-05-02T07:04:03.457Z,804.00
2023-05-02T07:05:06.446Z,803.00
2023-05-02T07:06:03.375Z,803.00
2023-05-02T07:07:03.450Z,804.00
2023-05-02T07:08:03.280Z,806.00
2023-05-02T07:09:03.239Z,806.00
2023-05-02T07:10:03.386Z,806.00
2023-05-02T07:11:05.786Z,807.00
2023-05-02T07:12:05.255Z,804.00
2023-05-02T07:13:03.388Z,799.00
2023-05-02T07:14:03.815Z,800.00
2023-05-02T07:15:04.285Z,804.00
2023-05-02T07:16:03.480Z,813.00
2023-05-02T07:17:03.481Z,829.00
2023-05-02T07:18:03.546Z,895.00
2023-05-02T07:19:04.511Z,923.00
2023-05-02T07:20:03.983Z,919.00
2023-05-02T07:21:03.440Z,1010.00
2023-05-02T07:22:03.435Z,1052.00
2023-05-02T07:23:04.330Z,1056.00
2023-05-02T07:24:03.410Z,1019.00
2023-05-02T07:25:03.449Z,1045.00
2023-05-02T07:26:06.149Z,1039.00
2023-05-02T07:27:03.353Z,942.00
2023-05-02T07:28:03.336Z,928.00
2023-05-02T07:29:03.321Z,917.00
2023-05-02T07:30:03.685Z,902.00
2023-05-02T07:31:03.270Z,903.00
2023-05-02T07:32:03.434Z,910.00
2023-05-02T07:33:03.256Z,929.00
2023-05-02T07:34:03.246Z,928.00
2023-05-02T07:35:03.160Z,924.00
2023-05-02T07:36:03.147Z,910.00
2023-05-02T07:37:03.099Z,888.00
2023-05-02T07:38:03.077Z,886.00
2023-05-02T07:39:03.051Z,889.00
2023-05-02T07:40:03.472Z,890.00
2023-05-02T07:41:03.030Z,900.00
2023-05-02T07:42:03.054Z,913.00
2023-05-02T07:43:02.953Z,910.00
2023-05-02T07:44:02.989Z,905.00
2023-05-02T07:45:02.923Z,902.00
2023-05-02T07:46:02.961Z,900.00
2023-05-02T07:47:02.853Z,893.00
2023-05-02T07:48:02.865Z,887.00
2023-05-02T07:49:02.900Z,880.00
2023-05-02T07:50:03.001Z,881.00
2023-05-02T07:51:02.752Z,879.00
2023-05-02T07:52:02.723Z,876.00
2023-05-02T07:53:02.829Z,867.00
2023-05-02T07:54:02.689Z,880.00
2023-05-02T07:55:02.735Z,876.00
2023-05-02T07:56:02.816Z,871.00
2023-05-02T07:57:02.621Z,868.00
2023-05-02T07:58:02.614Z,866.00
2023-05-02T07:59:03.685Z,866.00
2023-05-02T08:00:03.173Z,869.00
2023-05-02T08:01:02.508Z,870.00
2023-05-02T08:02:02.474Z,868.00
2023-05-02T08:03:02.734Z,864.00
2023-05-02T08:04:02.620Z,862.00
2023-05-02T08:05:02.532Z,858.00
2023-05-02T08:06:02.458Z,855.00
2023-05-02T08:07:02.328Z,857.00
2023-05-02T08:08:02.307Z,855.00
2023-05-02T08:09:02.278Z,855.00
2023-05-02T08:10:03.992Z,855.00
2023-05-02T08:11:02.250Z,886.00
2023-05-02T08:12:02.310Z,914.00
2023-05-02T08:13:02.221Z,937.00
2023-05-02T08:14:02.191Z,1024.00
2023-05-02T08:15:02.179Z,1032.00
2023-05-02T08:16:02.191Z,1049.00
2023-05-02T08:17:02.161Z,1069.00
2023-05-02T08:18:02.183Z,1149.00
2023-05-02T08:19:02.146Z,1161.00
2023-05-02T08:20:02.485Z,1160.00
2023-05-02T08:21:02.206Z,1144.00
2023-05-02T08:22:02.248Z,1199.00
2023-05-02T08:23:02.266Z,1205.00
2023-05-02T08:24:02.822Z,1173.00
2023-05-02T08:25:02.307Z,1175.00
2023-05-02T08:26:02.300Z,1195.00
2023-05-02T08:27:02.293Z,1255.00
2023-05-02T08:28:02.291Z,1271.00
2023-05-02T08:29:02.341Z,1195.00
2023-05-02T08:30:02.541Z,1224.00
2023-05-02T08:31:02.296Z,1195.00
2023-05-02T08:32:02.382Z,1173.00
2023-05-02T08:33:02.344Z,1133.00
2023-05-02T08:34:02.289Z,1095.00
2023-05-02T08:35:02.292Z,1067.00
2023-05-02T08:36:02.357Z,1053.00
2023-05-02T08:37:02.304Z,1054.00
2023-05-02T08:38:02.288Z,1043.00
2023-05-02T08:39:02.321Z,1034.00
2023-05-02T08:40:02.624Z,1029.00
2023-05-02T08:41:02.310Z,1023.00
2023-05-02T08:42:02.420Z,1019.00
2023-05-02T08:43:02.305Z,1015.00
2023-05-02T08:44:02.308Z,1012.00
2023-05-02T08:45:02.294Z,1010.00
2023-05-02T08:46:02.289Z,1009.00
2023-05-02T08:47:02.367Z,1007.00
2023-05-02T08:48:02.329Z,1009.00
2023-05-02T08:49:02.297Z,1006.00
2023-05-02T08:50:02.799Z,1005.00
2023-05-02T08:51:02.303Z,1007.00
2023-05-02T08:52:02.332Z,1001.00
2023-05-02T08:53:02.319Z,999.00
2023-05-02T08:54:02.322Z,999.00
2023-05-02T08:55:02.699Z,996.00
2023-05-02T08:56:03.321Z,1001.00
2023-05-02T08:57:02.324Z,1002.00
2023-05-02T08:58:02.324Z,1005.00
2023-05-02T08:59:02.433Z,1008.00
2023-05-02T09:00:02.344Z,1008.00
2023-05-02T09:01:02.357Z,1007.00
2023-05-02T09:02:02.303Z,1007.00
2023-05-02T09:03:02.372Z,1009.00
2023-05-02T09:04:02.528Z,1010.00
2023-05-02T09:05:02.606Z,1011.00
2023-05-02T09:06:02.304Z,1011.00
2023-05-02T09:07:02.285Z,1007.00
2023-05-02T09:08:02.293Z,1006.00
2023-05-02T09:09:02.273Z,1007.00
2023-05-02T09:10:02.298Z,1007.00
2023-05-02T09:11:02.284Z,1005.00
2023-05-02T09:12:02.263Z,1008.00
2023-05-02T09:13:02.278Z,1007.00
2023-05-02T09:14:02.281Z,1003.00
2023-05-02T09:15:02.279Z,1002.00
2023-05-02T09:16:02.366Z,1049.00
2023-05-02T09:17:02.362Z,1049.00
2023-05-02T09:18:02.480Z,1051.00
2023-05-02T09:19:02.381Z,1048.00
2023-05-02T09:20:02.397Z,1046.00
2023-05-02T09:21:02.398Z,1053.00
2023-05-02T09:22:02.424Z,1091.00
2023-05-02T09:23:02.448Z,1096.00
2023-05-02T09:24:02.456Z,1097.00
2023-05-02T09:25:02.486Z,1093.00
2023-05-02T09:26:02.480Z,1037.00
2023-05-02T09:27:02.490Z,1034.00
2023-05-02T09:28:02.490Z,1050.00
2023-05-02T09:29:02.471Z,1051.00
2023-05-02T09:30:02.488Z,1055.00
2023-05-02T09:31:02.486Z,1055.00
2023-05-02T09:32:02.499Z,1062.00
2023-05-02T09:33:03.500Z,1061.00
2023-05-02T09:34:02.553Z,1064.00
2023-05-02T09:35:02.393Z,1067.00
2023-05-02T09:36:02.354Z,1065.00
2023-05-02T09:37:02.337Z,1066.00
2023-05-02T09:38:02.311Z,1065.00
2023-05-02T09:39:02.269Z,1064.00
2023-05-02T09:40:02.507Z,1064.00
2023-05-02T09:41:02.212Z,1063.00
2023-05-02T09:42:02.194Z,1068.00
2023-05-02T09:43:02.170Z,1075.00
2023-05-02T09:44:02.153Z,1077.00
2023-05-02T09:45:02.323Z,1073.00
2023-05-02T09:46:02.114Z,1067.00
2023-05-02T09:47:02.124Z,1064.00
2023-05-02T09:48:02.124Z,1063.00
2023-05-02T09:49:02.046Z,1063.00
2023-05-02T09:50:02.009Z,1062.00
2023-05-02T09:51:01.994Z,1056.00
2023-05-02T09:52:01.958Z,1053.00
2023-05-02T09:53:01.948Z,1052.00
2023-05-02T09:54:01.920Z,1049.00
2023-05-02T09:55:02.128Z,1049.00
2023-05-02T09:56:01.879Z,1055.00
2023-05-02T09:57:01.843Z,1059.00
2023-05-02T09:58:01.813Z,1056.00
2023-05-02T09:59:01.803Z,1050.00
2023-05-02T10:00:01.763Z,1043.00
2023-05-02T10:01:01.862Z,1036.00
2023-05-02T10:02:01.921Z,1032.00
2023-05-02T10:03:01.815Z,1028.00
2023-05-02T10:04:01.724Z,1029.00
2023-05-02T10:05:01.995Z,1034.00
2023-05-02T10:06:01.668Z,1035.00
2023-05-02T10:07:01.610Z,1036.00
2023-05-02T10:08:01.588Z,1032.00
2023-05-02T10:09:01.563Z,1024.00
2023-05-02T10:10:01.553Z,1015.00
2023-05-02T10:11:01.539Z,1066.00
2023-05-02T10:12:01.529Z,1107.00
2023-05-02T10:13:01.567Z,1115.00
2023-05-02T10:14:01.641Z,1169.00
2023-05-02T10:15:02.078Z,1120.00
2023-05-02T10:16:01.790Z,1138.00
2023-05-02T10:17:01.795Z,1193.00
2023-05-02T10:18:01.895Z,1197.00
2023-05-02T10:19:01.861Z,1199.00
2023-05-02T10:20:01.878Z,1126.00
2023-05-02T10:21:01.900Z,1244.00
2023-05-02T10:22:01.915Z,1216.00
2023-05-02T10:23:01.941Z,1180.00
2023-05-02T10:24:01.941Z,1160.00
2023-05-02T10:25:02.162Z,1155.00
2023-05-02T10:26:01.922Z,1149.00
2023-05-02T10:27:01.943Z,1159.00
2023-05-02T10:28:01.968Z,1217.00
2023-05-02T10:29:01.973Z,1209.00
2023-05-02T10:30:02.967Z,1203.00
2023-05-02T10:31:01.955Z,1198.00
2023-05-02T10:32:01.947Z,1180.00
2023-05-02T10:33:01.898Z,1165.00
2023-05-02T10:34:01.837Z,1151.00
2023-05-02T10:35:02.026Z,1134.00
2023-05-02T10:36:01.771Z,1126.00
2023-05-02T10:37:01.733Z,1122.00
2023-05-02T10:38:01.705Z,1117.00
2023-05-02T10:39:01.679Z,1117.00
2023-05-02T10:40:01.651Z,1126.00
2023-05-02T10:41:01.622Z,1124.00
2023-05-02T10:42:01.579Z,1127.00
2023-05-02T10:43:01.556Z,1128.00
2023-05-02T10:44:01.514Z,1118.00
2023-05-02T10:45:01.728Z,1114.00
2023-05-02T10:46:01.461Z,1107.00
2023-05-02T10:47:01.532Z,1099.00
2023-05-02T10:48:01.431Z,1090.00
2023-05-02T10:49:01.383Z,1081.00
2023-05-02T10:50:01.922Z,1075.00
2023-05-02T10:51:01.349Z,1069.00
2023-05-02T10:52:01.266Z,1071.00
2023-05-02T10:53:01.241Z,1068.00
2023-05-02T10:54:01.219Z,1064.00
2023-05-02T10:55:01.328Z,1059.00
2023-05-02T10:56:01.162Z,1059.00
2023-05-02T10:57:01.121Z,1061.00
2023-05-02T10:58:01.155Z,1065.00
2023-05-02T10:59:01.117Z,1073.00
2023-05-02T11:00:01.147Z,1078.00
2023-05-02T11:01:01.153Z,1076.00
2023-05-02T11:02:01.925Z,1109.00
2023-05-02T11:03:01.210Z,1113.00
2023-05-02T11:04:01.123Z,1115.00
2023-05-02T11:05:01.452Z,1119.00
2023-05-02T11:06:01.151Z,1154.00
2023-05-02T11:07:01.209Z,1157.00
2023-05-02T11:08:01.200Z,1211.00
2023-05-02T11:09:01.229Z,1260.00
2023-05-02T11:10:01.233Z,1222.00
2023-05-02T11:11:01.256Z,1200.00
2023-05-02T11:12:01.263Z,1175.00
2023-05-02T11:13:01.893Z,1166.00
2023-05-02T11:14:01.261Z,1174.00
2023-05-02T11:15:01.585Z,1182.00
2023-05-02T11:16:01.264Z,1192.00
2023-05-02T11:17:01.451Z,1200.00
2023-05-02T11:18:01.297Z,1204.00
2023-05-02T11:19:01.327Z,1204.00
2023-05-02T11:20:01.175Z,1198.00
2023-05-02T11:21:01.163Z,1200.00
2023-05-02T11:22:01.155Z,1202.00
2023-05-02T11:23:01.147Z,1193.00
2023-05-02T11:24:01.159Z,1187.00
2023-05-02T11:25:01.381Z,1160.00
2023-05-02T11:26:01.166Z,1168.00
2023-05-02T11:27:01.174Z,1163.00
2023-05-02T11:28:01.169Z,1174.00
2023-05-02T11:29:01.208Z,1163.00
2023-05-02T11:30:01.191Z,1174.00
2023-05-02T11:31:01.220Z,1199.00
2023-05-02T11:32:01.222Z,1194.00
2023-05-02T11:33:01.197Z,1184.00
2023-05-02T11:34:01.236Z,1203.00
2023-05-02T11:35:01.482Z,1196.00
2023-05-02T11:36:01.331Z,1180.00
2023-05-02T11:37:01.256Z,1176.00
2023-05-02T11:38:01.239Z,1174.00
2023-05-02T11:39:01.226Z,1196.00
2023-05-02T11:40:01.221Z,1188.00
2023-05-02T11:41:01.223Z,1142.00
2023-05-02T11:42:01.222Z,1155.00
2023-05-02T11:43:01.261Z,1162.00
2023-05-02T11:44:01.229Z,1113.00
2023-05-02T11:45:01.604Z,1118.00
2023-05-02T11:46:01.280Z,1216.00
2023-05-02T11:47:01.237Z,1161.00
2023-05-02T11:48:01.285Z,1148.00
2023-05-02T11:49:01.267Z,1162.00
2023-05-02T11:50:01.218Z,1155.00
2023-05-02T11:51:01.220Z,1155.00
2023-05-02T11:52:01.217Z,1141.00
2023-05-02T11:53:01.237Z,1128.00
2023-05-02T11:54:01.241Z,1148.00
2023-05-02T11:55:01.374Z,1168.00
2023-05-02T11:56:01.269Z,1221.00
2023-05-02T11:57:01.227Z,1191.00
2023-05-02T11:58:01.214Z,1174.00
2023-05-02T11:59:01.208Z,1168.00
2023-05-02T12:00:01.222Z,1168.00
2023-05-02T12:01:01.181Z,1167.00
2023-05-02T12:02:01.166Z,1161.00
2023-05-02T12:03:01.245Z,1211.00
2023-05-02T12:04:01.273Z,1196.00
2023-05-02T12:05:01.482Z,1179.00
2023-05-02T12:06:01.262Z,1163.00
2023-05-02T12:07:01.310Z,1166.00
2023-05-02T12:08:01.250Z,1156.00
2023-05-02T12:09:01.253Z,1167.00
2023-05-02T12:10:01.244Z,1177.00
2023-05-02T12:11:01.251Z,1181.00
2023-05-02T12:12:01.253Z,1198.00
2023-05-02T12:13:01.246Z,1167.00
2023-05-02T12:14:01.252Z,1160.00
2023-05-02T12:15:01.577Z,1154.00
2023-05-02T12:16:01.265Z,1141.00
2023-05-02T12:17:01.238Z,1124.00
2023-05-02T12:18:01.306Z,1116.00
2023-05-02T12:19:01.427Z,1115.00
2023-05-02T12:20:01.232Z,1117.00